Main page
METAR-TAF:

METAR-TAF

Airports :

Graz Airport

Graz, Austria

latitude: 47-00N, longitude: 015-26E, elevation: 340 m

Current weather observation

The report was made 29 minutes ago, at 04:20 UTC
Wind 1 kt from variable directions
Temperature -2°C
Humidity 80%
Pressure 1014 hPa
Visibility 10 km or more
Few clouds at a height of 15000 ft
Overcast at a height of 17000 ft

METAR: LOWG 160420Z AUTO VRB01KT 9999 FEW150 OVC170 M02/M05 Q1014 R17/19//95

Time: 05:49 (04:49 UTC)

Forecast

The report was made 5 hours and 34 minutes ago, at 23:15 UTC
Forecast valid from 16 at 00 UTC to 16 at 24 UTC
Wind 4 kt from the North/Northwest
Visibility 10 km or more
Few clouds at a height of 7000 ft
Broken clouds at a height of 20000 ft

TAF: LOWG 152315Z 1600/1624 33004KT 9999 FEW070 BKN200 TX06/1614Z TNM05/1605Z

Weather observations and forecasts of more than 4000 airports (METAR and TAF reports).

The available stations are represented by yellow and red dots on the map.

Hover mouse over dot to see the name of the station.

Then click to see weather observations and forecasts.

To change the map : click on the green buttons with a black cross to zoom in, on the green button with a dash to zoom out, or on the green arrows for adjacent maps.


METAR-TAF: